РПИ Кишинев

Руководитель РПИ

Diomed Tintiuc*

Инструкторы РПИ
Diomed Tintiuc (Instructor)
Входит в состав
vACC Молдова

Диспетчеры РПИ

Диспетчер Рейтинг Допуски *
Vanya Bitca Student LUKK_GND

Аэропорты РПИ

ICAO Город Название Погода
LUKK Кишинев Кишинев LUKK 161800Z 25004KT 220V280 CAVOK M03/M07 Q1021 NOSIG